createdAt,value
2022-08-05T00:04:24.405Z,5.18
2022-08-05T00:09:12.751Z,4.60
2022-08-05T00:14:00.700Z,4.77
2022-08-05T00:18:49.352Z,4.65
2022-08-05T00:23:45.682Z,4.50
2022-08-05T00:28:31.608Z,4.05
2022-08-05T00:34:53.413Z,4.25
2022-08-05T00:38:28.906Z,4.30
2022-08-05T00:43:22.876Z,4.63
2022-08-05T00:48:09.276Z,4.18
2022-08-05T00:52:55.484Z,4.20
2022-08-05T00:57:57.957Z,3.90
2022-08-05T01:02:47.199Z,4.85
2022-08-05T01:07:35.278Z,4.33
2022-08-05T01:12:24.795Z,4.18
2022-08-05T01:17:20.804Z,4.57
2022-08-05T01:22:24.175Z,4.35
2022-08-05T01:27:23.606Z,4.35
2022-08-05T01:32:18.590Z,4.07
2022-08-05T01:37:08.980Z,4.45
2022-08-05T01:41:56.254Z,4.25
2022-08-05T01:46:46.289Z,4.82
2022-08-05T01:51:36.368Z,5.05
2022-08-05T01:58:11.253Z,4.18
2022-08-05T02:01:31.772Z,4.05
2022-08-05T02:06:37.191Z,4.93
2022-08-05T02:11:33.652Z,4.20
2022-08-05T02:16:24.259Z,4.25
2022-08-05T02:21:17.323Z,4.68
2022-08-05T02:26:05.873Z,4.57
2022-08-05T02:30:58.416Z,4.57
2022-08-05T02:35:55.922Z,4.88
2022-08-05T02:40:48.059Z,3.90
2022-08-05T02:45:52.752Z,4.32
2022-08-05T02:50:44.405Z,4.38
2022-08-05T02:55:54.796Z,4.60
2022-08-05T03:00:38.140Z,4.15
2022-08-05T03:06:56.940Z,4.25
2022-08-05T03:10:32.939Z,4.53
2022-08-05T03:15:18.427Z,4.75
2022-08-05T03:20:03.954Z,4.03
2022-08-05T03:24:53.053Z,4.50
2022-08-05T03:29:44.452Z,4.35
2022-08-05T03:34:31.105Z,4.13
2022-08-05T03:39:20.273Z,4.18
2022-08-05T03:44:12.500Z,4.15
2022-08-05T03:49:07.773Z,4.13
2022-08-05T03:55:50.367Z,4.20
2022-08-05T03:59:09.385Z,3.75
2022-08-05T04:04:10.320Z,4.18
2022-08-05T04:13:50.071Z,4.82
2022-08-05T04:18:37.174Z,4.72
2022-08-05T04:24:04.979Z,4.35
2022-08-05T04:28:35.014Z,4.55
2022-08-05T04:33:36.337Z,4.75
2022-08-05T04:38:39.898Z,4.38
2022-08-05T04:43:26.013Z,5.07
2022-08-05T04:48:18.422Z,4.65
2022-08-05T04:53:13.178Z,4.70
2022-08-05T04:57:59.091Z,4.80
2022-08-05T05:02:44.469Z,5.18
2022-08-05T05:07:35.345Z,5.18
2022-08-05T05:12:21.248Z,4.82
2022-08-05T05:17:09.611Z,5.00
2022-08-05T05:21:55.576Z,4.80
2022-08-05T05:26:43.449Z,4.57
2022-08-05T05:36:15.828Z,4.78
2022-08-05T05:41:01.468Z,4.13
2022-08-05T05:45:49.396Z,4.20
2022-08-05T05:50:41.239Z,4.35
2022-08-05T05:55:52.431Z,4.15
2022-08-05T06:00:34.959Z,3.78
2022-08-05T06:05:23.572Z,4.60
2022-08-05T06:10:11.420Z,4.32
2022-08-05T06:14:57.653Z,4.18
2022-08-05T06:19:43.189Z,4.80
2022-08-05T06:24:48.313Z,4.50
2022-08-05T06:29:49.278Z,4.20
2022-08-05T06:34:37.516Z,4.15
2022-08-05T06:39:26.732Z,4.20
2022-08-05T06:44:16.058Z,4.40
2022-08-05T06:49:07.551Z,4.63
2022-08-05T06:53:53.857Z,3.93
2022-08-05T06:58:39.893Z,4.20
2022-08-05T07:03:32.503Z,3.75
2022-08-05T07:08:18.299Z,3.40
2022-08-05T07:13:16.746Z,2.90
2022-08-05T07:18:29.127Z,3.35
2022-08-05T07:23:26.089Z,3.67
2022-08-05T07:28:17.159Z,2.70
2022-08-05T07:33:05.359Z,2.50
2022-08-05T07:37:54.992Z,2.75
2022-08-05T07:42:44.032Z,2.58
2022-08-05T07:47:39.654Z,2.88
2022-08-05T07:52:27.515Z,2.97
2022-08-05T07:57:56.248Z,2.58
2022-08-05T08:02:31.369Z,2.53
2022-08-05T08:07:39.480Z,2.88
2022-08-05T08:12:48.915Z,2.58
2022-08-05T08:17:37.797Z,3.00
2022-08-05T08:22:29.591Z,2.97
2022-08-05T08:27:16.663Z,2.70
2022-08-05T08:32:02.192Z,2.80
2022-08-05T08:36:57.768Z,2.72
2022-08-05T08:41:59.594Z,3.35
2022-08-05T08:46:47.768Z,3.20
2022-08-05T08:52:04.360Z,2.92
2022-08-05T08:56:47.389Z,3.20
2022-08-05T09:01:35.422Z,2.95
2022-08-05T09:06:29.887Z,3.78
2022-08-05T09:11:15.973Z,3.30
2022-08-05T09:16:04.087Z,3.33
2022-08-05T09:20:51.438Z,3.30
2022-08-05T09:26:02.843Z,3.45
2022-08-05T09:30:47.000Z,3.40
2022-08-05T09:35:37.268Z,3.50
2022-08-05T09:40:38.262Z,3.58
2022-08-05T09:46:06.438Z,3.53
2022-08-05T09:50:44.283Z,3.72
2022-08-05T09:55:58.550Z,3.70
2022-08-05T10:00:35.951Z,3.30
2022-08-05T10:05:23.875Z,3.53
2022-08-05T10:10:15.763Z,3.30
2022-08-05T10:15:22.102Z,3.30
2022-08-05T10:20:12.423Z,3.67
2022-08-05T10:25:03.367Z,3.58
2022-08-05T10:30:41.247Z,3.53
2022-08-05T10:35:01.015Z,3.58
2022-08-05T10:39:59.442Z,3.50
2022-08-05T10:44:57.312Z,3.47
2022-08-05T10:50:31.658Z,3.13
2022-08-05T10:55:12.003Z,3.60
2022-08-05T11:00:19.785Z,3.45
2022-08-05T11:05:09.345Z,3.03
2022-08-05T11:10:04.075Z,3.10
2022-08-05T11:15:19.197Z,2.80
2022-08-05T11:20:18.317Z,3.10
2022-08-05T11:26:04.762Z,3.60
2022-08-05T11:31:12.357Z,3.13
2022-08-05T11:36:34.550Z,2.90
2022-08-05T11:41:56.403Z,3.13
2022-08-05T11:46:35.660Z,3.03
2022-08-05T11:51:44.631Z,2.97
2022-08-05T11:56:41.074Z,3.20
2022-08-05T12:01:26.535Z,3.58
2022-08-05T12:06:12.357Z,3.17
2022-08-05T12:11:05.431Z,3.20
2022-08-05T12:15:51.731Z,2.60
2022-08-05T12:20:41.519Z,2.67
2022-08-05T12:25:28.535Z,2.97
2022-08-05T12:30:16.843Z,3.60
2022-08-05T12:35:04.160Z,3.08
2022-08-05T12:39:51.530Z,3.03
2022-08-05T12:44:37.510Z,2.90
2022-08-05T12:49:28.546Z,3.10
2022-08-05T12:54:35.479Z,2.50
2022-08-05T12:59:46.400Z,2.80
2022-08-05T13:04:33.755Z,2.67
2022-08-05T13:09:28.708Z,2.67
2022-08-05T13:14:36.312Z,2.58
2022-08-05T13:19:26.680Z,2.75
2022-08-05T13:24:14.459Z,2.50
2022-08-05T13:29:13.237Z,2.90
2022-08-05T13:34:21.195Z,2.95
2022-08-05T13:39:24.613Z,2.13
2022-08-05T13:44:18.536Z,2.33
2022-08-05T13:49:04.801Z,2.45
2022-08-05T13:53:56.530Z,2.30
2022-08-05T13:58:43.122Z,2.20
2022-08-05T14:03:46.877Z,2.15
2022-08-05T14:08:36.212Z,1.80
2022-08-05T14:13:23.542Z,1.90
2022-08-05T14:18:15.045Z,2.10
2022-08-05T14:23:06.790Z,1.98
2022-08-05T14:27:53.335Z,1.98
2022-08-05T14:32:39.329Z,1.80
2022-08-05T14:37:45.582Z,1.83
2022-08-05T14:42:32.596Z,2.10
2022-08-05T14:47:58.467Z,2.13
2022-08-05T14:52:50.393Z,2.03
2022-08-05T14:57:34.066Z,2.40
2022-08-05T15:02:36.834Z,1.88
2022-08-05T15:08:11.201Z,1.92
2022-08-05T15:12:41.075Z,2.00
2022-08-05T15:17:45.602Z,2.35
2022-08-05T15:22:33.644Z,2.00
2022-08-05T15:27:19.005Z,2.10
2022-08-05T15:32:05.779Z,1.90
2022-08-05T15:36:53.988Z,2.15
2022-08-05T15:41:55.163Z,1.95
2022-08-05T15:46:42.471Z,2.03
2022-08-05T15:52:04.418Z,2.13
2022-08-05T15:56:37.352Z,1.80
2022-08-05T16:01:29.431Z,1.70
2022-08-05T16:06:15.123Z,1.80
2022-08-05T16:11:05.913Z,1.98
2022-08-05T16:15:56.529Z,2.03
2022-08-05T16:20:41.653Z,2.80
2022-08-05T16:25:34.146Z,2.13
2022-08-05T16:30:25.814Z,2.20
2022-08-05T16:35:15.976Z,1.70
2022-08-05T16:40:06.026Z,2.50
2022-08-05T16:44:54.017Z,1.73
2022-08-05T16:49:39.446Z,1.63
2022-08-05T16:54:32.808Z,1.80
2022-08-05T16:59:18.380Z,2.20
2022-08-05T17:04:06.851Z,1.75
2022-08-05T17:08:53.819Z,1.90
2022-08-05T17:13:42.467Z,1.95
2022-08-05T17:18:32.055Z,1.85
2022-08-05T17:24:03.488Z,1.77
2022-08-05T17:28:23.666Z,1.80
2022-08-05T17:33:11.357Z,1.73
2022-08-05T17:38:00.513Z,1.80
2022-08-05T17:42:51.934Z,2.05
2022-08-05T17:47:38.994Z,1.80
2022-08-05T17:52:27.856Z,2.20
2022-08-05T17:57:13.791Z,2.35
2022-08-05T18:01:59.116Z,1.85
2022-08-05T18:06:45.709Z,1.77
2022-08-05T18:11:34.034Z,1.58
2022-08-05T18:16:20.335Z,1.90
2022-08-05T18:21:13.383Z,1.92
2022-08-05T18:26:05.710Z,1.88
2022-08-05T18:30:54.097Z,2.00
2022-08-05T18:36:00.753Z,1.90
2022-08-05T18:41:57.138Z,2.00
2022-08-05T18:45:56.138Z,2.15
2022-08-05T18:50:53.810Z,2.00
2022-08-05T18:55:40.413Z,2.20
2022-08-05T19:00:28.902Z,2.20
2022-08-05T19:06:13.455Z,2.50
2022-08-05T19:10:27.860Z,1.90
2022-08-05T19:15:58.014Z,2.35
2022-08-05T19:20:22.341Z,2.10
2022-08-05T19:25:09.498Z,2.10
2022-08-05T19:29:56.656Z,2.08
2022-08-05T19:34:54.672Z,2.33
2022-08-05T19:39:45.911Z,2.03
2022-08-05T19:44:44.967Z,2.13
2022-08-05T19:49:30.918Z,2.15
2022-08-05T19:54:21.980Z,1.73
2022-08-05T19:59:51.150Z,2.33
2022-08-05T20:04:20.638Z,2.22
2022-08-05T20:09:14.101Z,2.15
2022-08-05T20:14:14.210Z,2.30
2022-08-05T20:19:03.364Z,2.10
2022-08-05T20:23:51.161Z,2.45
2022-08-05T20:28:39.351Z,2.55
2022-08-05T20:33:25.376Z,2.15
2022-08-05T20:38:20.199Z,2.25
2022-08-05T20:43:12.759Z,2.97
2022-08-05T20:47:58.831Z,2.72
2022-08-05T20:52:46.453Z,3.00
2022-08-05T20:57:42.348Z,2.25
2022-08-05T21:02:30.234Z,2.28
2022-08-05T21:07:15.920Z,2.03
2022-08-05T21:12:09.094Z,2.30
2022-08-05T21:16:58.884Z,1.88
2022-08-05T21:21:50.858Z,2.08
2022-08-05T21:31:22.048Z,2.20
2022-08-05T21:36:10.139Z,2.35
2022-08-05T21:40:55.592Z,2.55
2022-08-05T21:45:51.830Z,2.40
2022-08-05T21:50:53.149Z,2.38
2022-08-05T21:56:00.927Z,2.60
2022-08-05T22:00:51.352Z,2.38
2022-08-05T22:05:49.137Z,2.47
2022-08-05T22:10:34.876Z,2.30
2022-08-05T22:16:01.429Z,2.50
2022-08-05T22:20:29.341Z,2.10
2022-08-05T22:26:09.785Z,2.25
2022-08-05T22:30:56.145Z,2.30
2022-08-05T22:35:48.668Z,2.50
2022-08-05T22:45:20.091Z,1.92
2022-08-05T22:50:19.630Z,1.95
2022-08-05T22:55:18.637Z,1.77
2022-08-05T23:00:05.155Z,1.98
2022-08-05T23:04:53.416Z,2.13
2022-08-05T23:09:58.311Z,1.92
2022-08-05T23:14:46.854Z,2.20
2022-08-05T23:19:32.234Z,1.80
2022-08-05T23:24:24.042Z,1.95
2022-08-05T23:29:11.781Z,2.00
2022-08-05T23:34:03.691Z,1.98
2022-08-05T23:38:51.478Z,1.75
2022-08-05T23:44:03.580Z,2.40
2022-08-05T23:48:45.980Z,1.65
2022-08-05T23:53:47.176Z,1.55
2022-08-05T23:58:32.644Z,1.52
